Shikarpur Weather



Shikarpur's Current Weather

Temprature 22o dust

dust

Rain: 0 %

Min Temprature22o
Max Temprature22o
Humidity26
Wind Speed3.09 m/h
Sun Rise07:16:14
Sun Set17:57:58
Current Time: 23-Jan-2021 18:36:12
Lat/Lon: 27.9571, 68.6379




Shikarpur's Geo Location



Shikarpur's Weather Forecast

Time Overall Temp Min Temp Max Temp Humidity Wind Speed Rain
23-Jan-2021 (Sat)
20:00:00 clear sky 18.450 14.720 18.450 24 2.23 m/h 0 %
23:00:00 clear sky 14.890 12.930 14.890 27 3.26 m/h 0 %
24-Jan-2021 (Sun)
02:00:00 clear sky 12.930 12.310 12.930 29 4.09 m/h 0 %
05:00:00 clear sky 10.440 10.350 10.440 34 2.65 m/h 0 %
08:00:00 clear sky 10.300 10.300 10.300 40 1.77 m/h 0 %
11:00:00 clear sky 19.590 19.590 19.590 23 3.42 m/h 0 %
14:00:00 clear sky 23.490 23.490 23.490 17 2.51 m/h 0 %
17:00:00 clear sky 23.010 23.010 23.010 17 1.52 m/h 0 %
20:00:00 clear sky 14.180 14.180 14.180 28 2.64 m/h 0 %
23:00:00 clear sky 12.400 12.400 12.400 30 2.2 m/h 0 %
25-Jan-2021 (Mon)
02:00:00 clear sky 11.380 11.380 11.380 32 1.69 m/h 0 %
05:00:00 clear sky 10.220 10.220 10.220 35 1.32 m/h 0 %
08:00:00 clear sky 10.550 10.550 10.550 36 1.15 m/h 0 %
11:00:00 clear sky 20.460 20.460 20.460 19 0.95 m/h 0 %
14:00:00 clear sky 24.340 24.340 24.340 15 0.94 m/h 0 %
17:00:00 clear sky 23.130 23.130 23.130 16 0.92 m/h 0 %
20:00:00 clear sky 14.430 14.430 14.430 29 1.6 m/h 0 %
23:00:00 clear sky 12.050 12.050 12.050 33 1.09 m/h 0 %
26-Jan-2021 (Tue)
02:00:00 clear sky 11.110 11.110 11.110 36 0.89 m/h 0 %
05:00:00 clear sky 10.440 10.440 10.440 37 0.6 m/h 0 %
08:00:00 clear sky 11.710 11.710 11.710 33 0.16 m/h 0 %
11:00:00 clear sky 21.650 21.650 21.650 18 1.05 m/h 0 %
14:00:00 clear sky 25.190 25.190 25.190 14 1.07 m/h 0 %
17:00:00 clear sky 23.920 23.920 23.920 15 0.62 m/h 0 %
20:00:00 clear sky 15.000 15.000 15.000 27 1.01 m/h 0 %
23:00:00 clear sky 12.870 12.870 12.870 29 1.21 m/h 0 %
27-Jan-2021 (Wed)
02:00:00 clear sky 12.020 12.020 12.020 31 1.28 m/h 0 %
05:00:00 clear sky 11.670 11.670 11.670 30 1.83 m/h 0 %
08:00:00 clear sky 11.430 11.430 11.430 31 1.9 m/h 0 %
11:00:00 clear sky 21.170 21.170 21.170 17 2.37 m/h 0 %
14:00:00 clear sky 25.400 25.400 25.400 13 1.22 m/h 0 %
17:00:00 clear sky 24.080 24.080 24.080 14 1.18 m/h 0 %
20:00:00 clear sky 15.110 15.110 15.110 26 2.22 m/h 0 %
23:00:00 clear sky 12.950 12.950 12.950 28 1.51 m/h 0 %
28-Jan-2021 (Thu)
02:00:00 clear sky 11.910 11.910 11.910 30 1.2 m/h 0 %
05:00:00 clear sky 10.700 10.700 10.700 34 0.94 m/h 0 %
08:00:00 clear sky 12.240 12.240 12.240 30 0.97 m/h 0 %
11:00:00 clear sky 22.540 22.540 22.540 15 0.99 m/h 0 %
14:00:00 clear sky 26.180 26.180 26.180 12 0.68 m/h 0 %
17:00:00 clear sky 24.870 24.870 24.870 14 0.34 m/h 0 %

Famous Cities (60)